sensor_id;sensor_type;location;lat;lon;timestamp;pressure;altitude;pressure_sealevel;temperature;humidity
6132;BME280;3097;42.692;23.278;2022-08-01T00:00:11;94916.97;;;21.69;61.95
6132;BME280;3097;42.692;23.278;2022-08-01T00:02:37;94925.91;;;21.68;62.05
6132;BME280;3097;42.692;23.278;2022-08-01T00:05:04;94918.72;;;21.74;62.02
6132;BME280;3097;42.692;23.278;2022-08-01T00:07:31;94899.84;;;21.58;62.15
6132;BME280;3097;42.692;23.278;2022-08-01T00:09:57;94914.06;;;21.71;62.18
6132;BME280;3097;42.692;23.278;2022-08-01T00:12:22;94914.53;;;21.73;62.01
6132;BME280;3097;42.692;23.278;2022-08-01T00:14:48;94922.41;;;21.73;62.04
6132;BME280;3097;42.692;23.278;2022-08-01T00:17:14;94924.56;;;21.71;61.29
6132;BME280;3097;42.692;23.278;2022-08-01T00:19:39;94923.19;;;21.73;61.50
6132;BME280;3097;42.692;23.278;2022-08-01T00:22:05;94916.97;;;21.69;61.39
6132;BME280;3097;42.692;23.278;2022-08-01T00:24:30;94922.22;;;21.69;61.61
6132;BME280;3097;42.692;23.278;2022-08-01T00:26:55;94930.19;;;21.64;61.79
6132;BME280;3097;42.692;23.278;2022-08-01T00:29:21;94927.44;;;21.55;62.41
6132;BME280;3097;42.692;23.278;2022-08-01T00:31:46;94933.34;;;21.47;62.82
6132;BME280;3097;42.692;23.278;2022-08-01T00:34:12;94922.31;;;21.32;63.84
6132;BME280;3097;42.692;23.278;2022-08-01T00:36:37;94926.88;;;21.26;64.27
6132;BME280;3097;42.692;23.278;2022-08-01T00:39:03;94936.66;;;21.20;64.58
6132;BME280;3097;42.692;23.278;2022-08-01T00:41:28;94929.84;;;21.01;65.68
6132;BME280;3097;42.692;23.278;2022-08-01T00:43:54;94909.41;;;20.65;66.32
6132;BME280;3097;42.692;23.278;2022-08-01T00:46:19;94915.84;;;20.73;66.81
6132;BME280;3097;42.692;23.278;2022-08-01T00:48:45;94932.41;;;20.68;67.16
6132;BME280;3097;42.692;23.278;2022-08-01T00:51:10;94931.19;;;20.61;67.36
6132;BME280;3097;42.692;23.278;2022-08-01T00:53:36;94924.63;;;20.44;68.17
6132;BME280;3097;42.692;23.278;2022-08-01T00:56:02;94930.47;;;20.36;68.79
6132;BME280;3097;42.692;23.278;2022-08-01T00:58:28;94920.47;;;20.38;68.98
6132;BME280;3097;42.692;23.278;2022-08-01T01:00:56;94909.22;;;20.38;68.72
6132;BME280;3097;42.692;23.278;2022-08-01T01:03:23;94910.00;;;20.38;69.02
6132;BME280;3097;42.692;23.278;2022-08-01T01:05:57;94899.06;;;20.31;69.06
6132;BME280;3097;42.692;23.278;2022-08-01T01:08:32;94866.41;;;20.05;69.58
6132;BME280;3097;42.692;23.278;2022-08-01T01:11:05;94897.84;;;20.24;69.92
6132;BME280;3097;42.692;23.278;2022-08-01T01:13:46;94897.66;;;20.20;70.38
6132;BME280;3097;42.692;23.278;2022-08-01T01:16:16;94900.09;;;20.12;69.98
6132;BME280;3097;42.692;23.278;2022-08-01T01:18:51;94896.25;;;20.04;69.57
6132;BME280;3097;42.692;23.278;2022-08-01T01:26:38;94888.41;;;20.04;68.44
6132;BME280;3097;42.692;23.278;2022-08-01T01:31:47;94885.69;;;20.14;67.52
6132;BME280;3097;42.692;23.278;2022-08-01T01:34:15;94868.00;;;20.06;68.01
6132;BME280;3097;42.692;23.278;2022-08-01T01:36:43;94826.97;;;19.78;68.22
6132;BME280;3097;42.692;23.278;2022-08-01T01:39:10;94872.38;;;20.10;68.06
6132;BME280;3097;42.692;23.278;2022-08-01T01:41:37;94875.22;;;20.14;67.84
6132;BME280;3097;42.692;23.278;2022-08-01T01:44:04;94873.06;;;20.16;67.86
6132;BME280;3097;42.692;23.278;2022-08-01T01:46:31;94863.19;;;20.13;68.08
6132;BME280;3097;42.692;23.278;2022-08-01T01:48:58;94862.16;;;20.09;68.05
6132;BME280;3097;42.692;23.278;2022-08-01T01:51:25;94820.22;;;19.71;68.08
6132;BME280;3097;42.692;23.278;2022-08-01T01:53:53;94863.28;;;20.03;67.89
6132;BME280;3097;42.692;23.278;2022-08-01T01:56:20;94838.16;;;19.83;67.57
6132;BME280;3097;42.692;23.278;2022-08-01T01:58:51;94868.59;;;19.98;67.32
6132;BME280;3097;42.692;23.278;2022-08-01T02:01:18;94872.81;;;19.94;67.24
6132;BME280;3097;42.692;23.278;2022-08-01T02:03:45;94864.00;;;19.90;67.53
6132;BME280;3097;42.692;23.278;2022-08-01T02:06:13;94857.81;;;19.81;67.43
6132;BME280;3097;42.692;23.278;2022-08-01T02:08:40;94864.09;;;19.80;67.54
6132;BME280;3097;42.692;23.278;2022-08-01T02:11:07;94859.13;;;19.78;68.20
6132;BME280;3097;42.692;23.278;2022-08-01T02:13:51;94851.13;;;19.69;68.32
6132;BME280;3097;42.692;23.278;2022-08-01T02:16:18;94847.50;;;19.65;68.51
6132;BME280;3097;42.692;23.278;2022-08-01T02:18:46;94852.81;;;19.60;68.58
6132;BME280;3097;42.692;23.278;2022-08-01T02:21:14;94852.84;;;19.55;68.53
6132;BME280;3097;42.692;23.278;2022-08-01T02:23:42;94849.78;;;19.48;68.63
6132;BME280;3097;42.692;23.278;2022-08-01T02:26:10;94856.59;;;19.44;68.18
6132;BME280;3097;42.692;23.278;2022-08-01T02:28:59;94830.97;;;19.17;67.76
6132;BME280;3097;42.692;23.278;2022-08-01T02:31:32;94853.34;;;19.28;67.84
6132;BME280;3097;42.692;23.278;2022-08-01T02:34:06;94847.34;;;19.28;67.48
6132;BME280;3097;42.692;23.278;2022-08-01T02:36:35;94864.53;;;19.34;67.55
6132;BME280;3097;42.692;23.278;2022-08-01T02:39:07;94858.50;;;19.33;67.32
6132;BME280;3097;42.692;23.278;2022-08-01T02:41:36;94861.13;;;19.33;67.34
6132;BME280;3097;42.692;23.278;2022-08-01T02:44:05;94832.75;;;19.22;66.99
6132;BME280;3097;42.692;23.278;2022-08-01T02:46:38;94845.03;;;19.21;67.47
6132;BME280;3097;42.692;23.278;2022-08-01T02:49:07;94852.84;;;19.26;66.77
6132;BME280;3097;42.692;23.278;2022-08-01T02:51:35;94856.50;;;19.25;67.09
6132;BME280;3097;42.692;23.278;2022-08-01T02:54:03;94850.47;;;19.25;67.65
6132;BME280;3097;42.692;23.278;2022-08-01T02:56:31;94855.22;;;19.23;67.79
6132;BME280;3097;42.692;23.278;2022-08-01T02:59:05;94852.88;;;19.21;67.50
6132;BME280;3097;42.692;23.278;2022-08-01T03:01:33;94854.22;;;19.19;67.58
6132;BME280;3097;42.692;23.278;2022-08-01T03:03:59;94846.47;;;19.09;68.18
6132;BME280;3097;42.692;23.278;2022-08-01T03:06:25;94818.66;;;18.94;67.65
6132;BME280;3097;42.692;23.278;2022-08-01T03:08:52;94852.75;;;19.08;67.74
6132;BME280;3097;42.692;23.278;2022-08-01T03:11:20;94851.72;;;19.04;68.81
6132;BME280;3097;42.692;23.278;2022-08-01T03:13:47;94855.38;;;19.08;67.76
6132;BME280;3097;42.692;23.278;2022-08-01T03:16:15;94857.22;;;19.02;67.99
6132;BME280;3097;42.692;23.278;2022-08-01T03:18:43;94863.00;;;18.99;68.17
6132;BME280;3097;42.692;23.278;2022-08-01T03:21:11;94864.31;;;18.97;68.92
6132;BME280;3097;42.692;23.278;2022-08-01T03:23:38;94854.56;;;18.78;69.70
6132;BME280;3097;42.692;23.278;2022-08-01T03:26:05;94844.91;;;18.74;70.24
6132;BME280;3097;42.692;23.278;2022-08-01T03:28:31;94859.69;;;18.88;70.40
6132;BME280;3097;42.692;23.278;2022-08-01T03:30:59;94857.59;;;18.90;70.01
6132;BME280;3097;42.692;23.278;2022-08-01T03:33:25;94828.44;;;18.73;69.78
6132;BME280;3097;42.692;23.278;2022-08-01T03:35:53;94864.41;;;18.86;69.83
6132;BME280;3097;42.692;23.278;2022-08-01T03:38:23;94859.19;;;18.86;69.87
6132;BME280;3097;42.692;23.278;2022-08-01T03:41:11;94859.16;;;18.91;70.06
6132;BME280;3097;42.692;23.278;2022-08-01T03:43:46;94852.34;;;18.90;70.13
6132;BME280;3097;42.692;23.278;2022-08-01T03:46:20;94827.41;;;18.74;69.99
6132;BME280;3097;42.692;23.278;2022-08-01T03:48:48;94858.56;;;19.00;69.76
6132;BME280;3097;42.692;23.278;2022-08-01T03:51:17;94821.53;;;18.87;69.55
6132;BME280;3097;42.692;23.278;2022-08-01T03:53:44;94851.69;;;19.09;69.51
6132;BME280;3097;42.692;23.278;2022-08-01T03:56:12;94853.81;;;19.07;70.14
6132;BME280;3097;42.692;23.278;2022-08-01T03:58:39;94861.72;;;18.97;70.65
6132;BME280;3097;42.692;23.278;2022-08-01T04:01:07;94857.03;;;18.93;70.76
6132;BME280;3097;42.692;23.278;2022-08-01T04:03:34;94859.16;;;18.91;69.86
6132;BME280;3097;42.692;23.278;2022-08-01T04:06:04;94858.56;;;19.00;70.28
6132;BME280;3097;42.692;23.278;2022-08-01T04:08:39;94866.91;;;19.02;69.37
6132;BME280;3097;42.692;23.278;2022-08-01T04:11:07;94858.59;;;18.94;68.88
6132;BME280;3097;42.692;23.278;2022-08-01T04:13:33;94865.88;;;18.98;69.38
6132;BME280;3097;42.692;23.278;2022-08-01T04:15:59;94863.53;;;18.96;69.60
6132;BME280;3097;42.692;23.278;2022-08-01T04:18:24;94865.94;;;18.92;69.91
6132;BME280;3097;42.692;23.278;2022-08-01T04:20:50;94866.41;;;18.94;70.32
6132;BME280;3097;42.692;23.278;2022-08-01T04:23:17;94871.34;;;19.01;70.72
6132;BME280;3097;42.692;23.278;2022-08-01T04:25:46;94870.94;;;19.18;70.06
6132;BME280;3097;42.692;23.278;2022-08-01T04:28:16;94873.72;;;19.60;68.91
6132;BME280;3097;42.692;23.278;2022-08-01T04:30:46;94867.38;;;20.14;67.60
6132;BME280;3097;42.692;23.278;2022-08-01T04:33:14;94867.13;;;20.72;65.80
6132;BME280;3097;42.692;23.278;2022-08-01T04:35:44;94853.84;;;21.19;63.05
6132;BME280;3097;42.692;23.278;2022-08-01T04:38:12;94844.28;;;21.70;60.73
6132;BME280;3097;42.692;23.278;2022-08-01T04:40:40;94870.41;;;22.43;59.36
6132;BME280;3097;42.692;23.278;2022-08-01T04:43:07;94872.59;;;22.99;58.25
6132;BME280;3097;42.692;23.278;2022-08-01T04:45:34;94862.84;;;23.22;56.43
6132;BME280;3097;42.692;23.278;2022-08-01T04:48:00;94871.63;;;23.71;55.28
6132;BME280;3097;42.692;23.278;2022-08-01T04:50:26;94873.03;;;23.77;55.63
6132;BME280;3097;42.692;23.278;2022-08-01T04:52:52;94870.31;;;24.39;54.98
6132;BME280;3097;42.692;23.278;2022-08-01T04:55:18;94876.41;;;24.99;52.47
6132;BME280;3097;42.692;23.278;2022-08-01T04:57:45;94870.28;;;25.42;51.87
6132;BME280;3097;42.692;23.278;2022-08-01T05:00:12;94867.72;;;25.71;50.70
6132;BME280;3097;42.692;23.278;2022-08-01T05:02:38;94871.34;;;26.34;49.81
6132;BME280;3097;42.692;23.278;2022-08-01T05:05:04;94852.50;;;26.77;47.79
6132;BME280;3097;42.692;23.278;2022-08-01T05:07:32;94837.25;;;27.16;47.29
6132;BME280;3097;42.692;23.278;2022-08-01T05:09:58;94854.06;;;27.65;45.67
6132;BME280;3097;42.692;23.278;2022-08-01T05:12:24;94849.78;;;27.72;45.32
6132;BME280;3097;42.692;23.278;2022-08-01T05:14:50;94854.00;;;28.22;45.39
6132;BME280;3097;42.692;23.278;2022-08-01T05:17:16;94854.50;;;28.52;44.91
6132;BME280;3097;42.692;23.278;2022-08-01T05:19:42;94862.66;;;28.59;42.78
6132;BME280;3097;42.692;23.278;2022-08-01T05:22:08;94863.91;;;29.02;42.83
6132;BME280;3097;42.692;23.278;2022-08-01T05:24:36;94853.38;;;29.49;41.51
6132;BME280;3097;42.692;23.278;2022-08-01T05:27:03;94852.28;;;29.81;41.43
6132;BME280;3097;42.692;23.278;2022-08-01T05:29:29;94833.81;;;30.35;39.45
6132;BME280;3097;42.692;23.278;2022-08-01T05:31:55;94852.06;;;30.53;39.57
6132;BME280;3097;42.692;23.278;2022-08-01T05:34:22;94844.97;;;31.37;39.82
6132;BME280;3097;42.692;23.278;2022-08-01T05:36:48;94780.00;;;31.42;37.89
6132;BME280;3097;42.692;23.278;2022-08-01T05:39:13;94848.31;;;32.22;37.29
6132;BME280;3097;42.692;23.278;2022-08-01T05:41:39;94851.19;;;32.66;36.12
6132;BME280;3097;42.692;23.278;2022-08-01T05:44:05;94860.31;;;33.21;34.01
6132;BME280;3097;42.692;23.278;2022-08-01T05:46:31;94856.72;;;33.43;32.85
6132;BME280;3097;42.692;23.278;2022-08-01T05:48:58;94856.34;;;33.86;33.67
6132;BME280;3097;42.692;23.278;2022-08-01T05:51:24;94854.09;;;33.91;33.04
6132;BME280;3097;42.692;23.278;2022-08-01T05:53:50;94839.41;;;34.18;32.12
6132;BME280;3097;42.692;23.278;2022-08-01T05:56:15;94850.91;;;34.81;29.12
6132;BME280;3097;42.692;23.278;2022-08-01T05:58:41;94846.06;;;35.22;30.06
6132;BME280;3097;42.692;23.278;2022-08-01T06:01:06;94829.69;;;35.69;27.70
6132;BME280;3097;42.692;23.278;2022-08-01T06:03:32;94847.31;;;35.63;25.36
6132;BME280;3097;42.692;23.278;2022-08-01T06:05:59;94849.16;;;35.24;25.16
6132;BME280;3097;42.692;23.278;2022-08-01T06:08:24;94861.75;;;35.20;25.78
6132;BME280;3097;42.692;23.278;2022-08-01T06:10:50;94868.13;;;34.80;25.48
6132;BME280;3097;42.692;23.278;2022-08-01T06:13:16;94867.47;;;34.35;26.28
6132;BME280;3097;42.692;23.278;2022-08-01T06:15:42;94859.63;;;34.12;26.58
6132;BME280;3097;42.692;23.278;2022-08-01T06:18:07;94862.81;;;33.81;27.06
6132;BME280;3097;42.692;23.278;2022-08-01T06:20:32;94856.19;;;34.12;26.33
6132;BME280;3097;42.692;23.278;2022-08-01T06:22:58;94858.63;;;34.28;26.20
6132;BME280;3097;42.692;23.278;2022-08-01T06:25:23;94851.97;;;34.14;28.01
6132;BME280;3097;42.692;23.278;2022-08-01T06:27:49;94864.69;;;34.90;26.40
6132;BME280;3097;42.692;23.278;2022-08-01T06:30:15;94859.75;;;34.96;27.32
6132;BME280;3097;42.692;23.278;2022-08-01T06:32:40;94868.47;;;34.75;26.40
6132;BME280;3097;42.692;23.278;2022-08-01T06:35:06;94852.00;;;34.73;26.58
6132;BME280;3097;42.692;23.278;2022-08-01T06:37:32;94849.38;;;34.80;28.03
6132;BME280;3097;42.692;23.278;2022-08-01T06:40:06;94854.00;;;34.93;27.71
6132;BME280;3097;42.692;23.278;2022-08-01T06:42:32;94840.41;;;34.00;27.67
6132;BME280;3097;42.692;23.278;2022-08-01T06:45:09;94854.13;;;33.51;29.13
6132;BME280;3097;42.692;23.278;2022-08-01T06:47:35;94841.69;;;33.28;29.91
6132;BME280;3097;42.692;23.278;2022-08-01T06:50:01;94786.53;;;32.80;29.71
6132;BME280;3097;42.692;23.278;2022-08-01T06:52:26;94830.09;;;32.84;29.96
6132;BME280;3097;42.692;23.278;2022-08-01T06:54:52;94843.38;;;32.50;31.16
6132;BME280;3097;42.692;23.278;2022-08-01T06:57:18;94825.03;;;31.96;31.28
6132;BME280;3097;42.692;23.278;2022-08-01T06:59:43;94837.78;;;31.83;32.20
6132;BME280;3097;42.692;23.278;2022-08-01T07:02:10;94841.50;;;31.56;31.85
6132;BME280;3097;42.692;23.278;2022-08-01T07:04:36;94834.78;;;31.62;35.08
6132;BME280;3097;42.692;23.278;2022-08-01T07:07:01;94827.59;;;31.89;32.97
6132;BME280;3097;42.692;23.278;2022-08-01T07:09:27;94839.03;;;31.05;33.08
6132;BME280;3097;42.692;23.278;2022-08-01T07:11:53;94836.25;;;30.79;34.71
6132;BME280;3097;42.692;23.278;2022-08-01T07:14:19;94836.69;;;30.81;35.51
6132;BME280;3097;42.692;23.278;2022-08-01T07:16:45;94818.53;;;30.87;34.10
6132;BME280;3097;42.692;23.278;2022-08-01T07:19:11;94841.50;;;30.56;33.96
6132;BME280;3097;42.692;23.278;2022-08-01T07:21:37;94837.63;;;30.54;35.08
6132;BME280;3097;42.692;23.278;2022-08-01T07:24:04;94840.09;;;30.62;36.12
6132;BME280;3097;42.692;23.278;2022-08-01T07:26:30;94848.84;;;30.63;33.47
6132;BME280;3097;42.692;23.278;2022-08-01T07:28:55;94853.53;;;30.34;34.70
6132;BME280;3097;42.692;23.278;2022-08-01T07:31:21;94854.19;;;29.81;36.04
6132;BME280;3097;42.692;23.278;2022-08-01T07:33:46;94846.47;;;29.76;35.93
6132;BME280;3097;42.692;23.278;2022-08-01T07:36:11;94843.09;;;29.63;36.63
6132;BME280;3097;42.692;23.278;2022-08-01T07:38:37;94841.09;;;29.29;35.65
6132;BME280;3097;42.692;23.278;2022-08-01T07:41:02;94846.06;;;29.02;36.70
6132;BME280;3097;42.692;23.278;2022-08-01T07:43:28;94850.50;;;28.98;35.55
6132;BME280;3097;42.692;23.278;2022-08-01T07:45:54;94849.13;;;28.24;36.78
6132;BME280;3097;42.692;23.278;2022-08-01T07:48:20;94844.91;;;27.99;37.63
6132;BME280;3097;42.692;23.278;2022-08-01T07:50:49;94847.47;;;27.95;40.50
6132;BME280;3097;42.692;23.278;2022-08-01T07:53:15;94858.94;;;28.48;38.03
6132;BME280;3097;42.692;23.278;2022-08-01T07:55:41;94856.31;;;28.11;39.18
6132;BME280;3097;42.692;23.278;2022-08-01T07:58:07;94854.31;;;27.96;38.64
6132;BME280;3097;42.692;23.278;2022-08-01T08:00:32;94860.69;;;27.83;38.72
6132;BME280;3097;42.692;23.278;2022-08-01T08:02:58;94859.53;;;27.48;39.10
6132;BME280;3097;42.692;23.278;2022-08-01T08:05:25;94840.34;;;27.51;39.95
6132;BME280;3097;42.692;23.278;2022-08-01T08:07:51;94861.81;;;27.94;39.62
6132;BME280;3097;42.692;23.278;2022-08-01T08:10:16;94856.31;;;27.87;40.68
6132;BME280;3097;42.692;23.278;2022-08-01T08:12:42;94851.19;;;27.70;39.45
6132;BME280;3097;42.692;23.278;2022-08-01T08:15:07;94855.63;;;27.90;41.13
6132;BME280;3097;42.692;23.278;2022-08-01T08:17:33;94856.19;;;27.96;38.37
6132;BME280;3097;42.692;23.278;2022-08-01T08:19:59;94838.16;;;28.38;38.76
6132;BME280;3097;42.692;23.278;2022-08-01T08:22:24;94827.59;;;28.26;39.14
6132;BME280;3097;42.692;23.278;2022-08-01T08:24:50;94849.22;;;28.40;38.55
6132;BME280;3097;42.692;23.278;2022-08-01T08:27:15;94847.78;;;28.30;37.49
6132;BME280;3097;42.692;23.278;2022-08-01T08:29:41;94852.13;;;28.23;39.99
6132;BME280;3097;42.692;23.278;2022-08-01T08:32:07;94847.44;;;28.44;38.72
6132;BME280;3097;42.692;23.278;2022-08-01T08:34:33;94849.78;;;28.33;36.59
6132;BME280;3097;42.692;23.278;2022-08-01T08:36:59;94842.41;;;28.27;38.92
6132;BME280;3097;42.692;23.278;2022-08-01T08:39:25;94838.84;;;28.10;37.68
6132;BME280;3097;42.692;23.278;2022-08-01T08:41:51;94838.66;;;28.16;38.39
6132;BME280;3097;42.692;23.278;2022-08-01T08:44:17;94843.50;;;28.26;38.24
6132;BME280;3097;42.692;23.278;2022-08-01T08:46:45;94837.09;;;28.27;37.35
6132;BME280;3097;42.692;23.278;2022-08-01T08:49:14;94832.28;;;28.44;39.17
6132;BME280;3097;42.692;23.278;2022-08-01T08:51:42;94840.59;;;28.43;37.01
6132;BME280;3097;42.692;23.278;2022-08-01T08:54:11;94837.75;;;28.24;35.96
6132;BME280;3097;42.692;23.278;2022-08-01T08:56:37;94840.97;;;28.17;36.78
6132;BME280;3097;42.692;23.278;2022-08-01T08:59:04;94841.69;;;28.05;37.91
6132;BME280;3097;42.692;23.278;2022-08-01T09:01:31;94827.69;;;27.93;37.07
6132;BME280;3097;42.692;23.278;2022-08-01T09:03:58;94832.00;;;27.85;38.95
6132;BME280;3097;42.692;23.278;2022-08-01T09:06:24;94833.22;;;27.88;37.61
6132;BME280;3097;42.692;23.278;2022-08-01T09:08:49;94837.31;;;27.73;35.13
6132;BME280;3097;42.692;23.278;2022-08-01T09:11:15;94834.78;;;27.31;35.64
6132;BME280;3097;42.692;23.278;2022-08-01T09:13:41;94835.44;;;27.28;36.37
6132;BME280;3097;42.692;23.278;2022-08-01T09:16:06;94830.72;;;27.01;38.22
6132;BME280;3097;42.692;23.278;2022-08-01T09:18:36;94832.16;;;26.99;40.48
6132;BME280;3097;42.692;23.278;2022-08-01T09:23:32;94807.47;;;26.86;37.90
6132;BME280;3097;42.692;23.278;2022-08-01T09:25:58;94819.88;;;26.73;38.09
6132;BME280;3097;42.692;23.278;2022-08-01T09:28:28;94810.97;;;26.78;39.34
6132;BME280;3097;42.692;23.278;2022-08-01T09:30:56;94795.53;;;26.68;39.00
6132;BME280;3097;42.692;23.278;2022-08-01T09:33:21;94819.88;;;26.94;39.17
6132;BME280;3097;42.692;23.278;2022-08-01T09:35:55;94805.94;;;27.06;38.25
6132;BME280;3097;42.692;23.278;2022-08-01T09:38:22;94802.47;;;27.38;39.34
6132;BME280;3097;42.692;23.278;2022-08-01T09:40:53;94812.88;;;27.55;39.16
6132;BME280;3097;42.692;23.278;2022-08-01T09:43:21;94811.72;;;27.44;39.23
6132;BME280;3097;42.692;23.278;2022-08-01T09:45:47;94807.56;;;27.43;39.20
6132;BME280;3097;42.692;23.278;2022-08-01T09:48:12;94814.53;;;27.60;41.61
6132;BME280;3097;42.692;23.278;2022-08-01T09:50:50;94808.16;;;27.85;39.74
6132;BME280;3097;42.692;23.278;2022-08-01T09:53:16;94823.72;;;27.87;38.17
6132;BME280;3097;42.692;23.278;2022-08-01T09:55:42;94808.16;;;27.73;36.22
6132;BME280;3097;42.692;23.278;2022-08-01T09:58:08;94800.63;;;27.75;38.23
6132;BME280;3097;42.692;23.278;2022-08-01T10:00:36;94809.72;;;27.74;37.99
6132;BME280;3097;42.692;23.278;2022-08-01T10:03:22;94809.66;;;27.50;38.78
6132;BME280;3097;42.692;23.278;2022-08-01T10:05:48;94809.66;;;27.50;39.69
6132;BME280;3097;42.692;23.278;2022-08-01T10:08:13;94787.34;;;27.39;38.50
6132;BME280;3097;42.692;23.278;2022-08-01T10:10:40;94817.16;;;27.48;38.88
6132;BME280;3097;42.692;23.278;2022-08-01T10:13:06;94818.31;;;27.59;38.15
6132;BME280;3097;42.692;23.278;2022-08-01T10:15:32;94818.03;;;27.52;37.67
6132;BME280;3097;42.692;23.278;2022-08-01T10:18:01;94803.84;;;27.56;38.10
6132;BME280;3097;42.692;23.278;2022-08-01T10:20:29;94808.75;;;27.46;38.04
6132;BME280;3097;42.692;23.278;2022-08-01T10:23:01;94811.50;;;27.37;38.93
6132;BME280;3097;42.692;23.278;2022-08-01T10:25:35;94795.34;;;27.06;39.21
6132;BME280;3097;42.692;23.278;2022-08-01T10:28:09;94797.41;;;27.00;39.93
6132;BME280;3097;42.692;23.278;2022-08-01T10:30:36;94793.81;;;27.17;40.43
6132;BME280;3097;42.692;23.278;2022-08-01T10:33:02;94786.56;;;27.26;39.97
6132;BME280;3097;42.692;23.278;2022-08-01T10:35:28;94796.34;;;27.13;39.44
6132;BME280;3097;42.692;23.278;2022-08-01T10:37:55;94795.94;;;27.23;41.08
6132;BME280;3097;42.692;23.278;2022-08-01T10:40:23;94790.00;;;27.39;41.19
6132;BME280;3097;42.692;23.278;2022-08-01T10:42:49;94777.47;;;27.60;39.20
6132;BME280;3097;42.692;23.278;2022-08-01T10:45:15;94779.78;;;27.61;37.76
6132;BME280;3097;42.692;23.278;2022-08-01T10:50:41;94782.03;;;27.39;38.58
6132;BME280;3097;42.692;23.278;2022-08-01T10:53:12;94775.66;;;27.40;39.08
6132;BME280;3097;42.692;23.278;2022-08-01T10:58:13;94773.50;;;27.09;39.89
6132;BME280;3097;42.692;23.278;2022-08-01T11:00:38;94770.53;;;27.10;40.85
6132;BME280;3097;42.692;23.278;2022-08-01T11:03:04;94763.72;;;27.21;40.29
6132;BME280;3097;42.692;23.278;2022-08-01T11:05:34;94768.69;;;27.23;40.60
6132;BME280;3097;42.692;23.278;2022-08-01T11:08:09;94764.38;;;27.18;39.55
6132;BME280;3097;42.692;23.278;2022-08-01T11:10:42;94776.06;;;27.17;39.71
6132;BME280;3097;42.692;23.278;2022-08-01T11:13:11;94769.75;;;27.10;39.87
6132;BME280;3097;42.692;23.278;2022-08-01T11:15:41;94766.44;;;27.01;40.28
6132;BME280;3097;42.692;23.278;2022-08-01T11:18:29;94764.88;;;27.00;40.32
6132;BME280;3097;42.692;23.278;2022-08-01T11:20:57;94761.28;;;27.04;40.13
6132;BME280;3097;42.692;23.278;2022-08-01T11:23:24;94773.63;;;27.12;40.92
6132;BME280;3097;42.692;23.278;2022-08-01T11:31:39;94770.06;;;26.96;40.71
6132;BME280;3097;42.692;23.278;2022-08-01T11:39:33;94761.31;;;26.83;40.13
6132;BME280;3097;42.692;23.278;2022-08-01T11:41:36;94758.31;;;26.85;41.78
6132;BME280;3097;42.692;23.278;2022-08-01T11:44:07;94764.06;;;26.87;40.46
6132;BME280;3097;42.692;23.278;2022-08-01T11:54:31;94754.56;;;26.86;40.52
6132;BME280;3097;42.692;23.278;2022-08-01T11:56:58;94749.53;;;26.93;40.88
6132;BME280;3097;42.692;23.278;2022-08-01T11:59:25;94760.38;;;27.00;41.63
6132;BME280;3097;42.692;23.278;2022-08-01T12:01:51;94759.06;;;27.06;40.12
6132;BME280;3097;42.692;23.278;2022-08-01T12:04:17;94767.44;;;27.08;40.86
6132;BME280;3097;42.692;23.278;2022-08-01T12:06:42;94748.91;;;27.08;40.91
6132;BME280;3097;42.692;23.278;2022-08-01T12:09:15;94745.31;;;27.13;41.74
6132;BME280;3097;42.692;23.278;2022-08-01T12:11:41;94744.31;;;27.17;40.14
6132;BME280;3097;42.692;23.278;2022-08-01T12:14:06;94754.00;;;27.13;41.45
6132;BME280;3097;42.692;23.278;2022-08-01T12:16:32;94743.66;;;27.20;41.96
6132;BME280;3097;42.692;23.278;2022-08-01T12:18:58;94736.38;;;27.29;40.34
6132;BME280;3097;42.692;23.278;2022-08-01T12:21:23;94739.38;;;27.28;39.26
6132;BME280;3097;42.692;23.278;2022-08-01T12:24:02;94742.00;;;27.28;41.00
6132;BME280;3097;42.692;23.278;2022-08-01T12:26:48;94740.38;;;27.35;41.04
6132;BME280;3097;42.692;23.278;2022-08-01T12:29:33;94743.44;;;27.38;40.05
6132;BME280;3097;42.692;23.278;2022-08-01T12:32:00;94717.38;;;27.15;40.52
6132;BME280;3097;42.692;23.278;2022-08-01T12:34:26;94752.38;;;27.33;41.01
6132;BME280;3097;42.692;23.278;2022-08-01T12:36:57;94751.72;;;27.36;40.01
6132;BME280;3097;42.692;23.278;2022-08-01T12:39:31;94737.38;;;27.25;39.60
6132;BME280;3097;42.692;23.278;2022-08-01T12:41:57;94743.44;;;27.13;40.07
6132;BME280;3097;42.692;23.278;2022-08-01T12:44:22;94741.66;;;27.17;40.83
6132;BME280;3097;42.692;23.278;2022-08-01T12:46:48;94663.16;;;26.64;39.95
6132;BME280;3097;42.692;23.278;2022-08-01T12:49:14;94754.22;;;27.08;39.75
6132;BME280;3097;42.692;23.278;2022-08-01T12:51:40;94739.31;;;27.04;40.30
6132;BME280;3097;42.692;23.278;2022-08-01T12:54:06;94737.91;;;27.06;40.31
6132;BME280;3097;42.692;23.278;2022-08-01T12:56:35;94737.47;;;27.16;40.48
6132;BME280;3097;42.692;23.278;2022-08-01T12:59:01;94736.38;;;27.17;41.08
6132;BME280;3097;42.692;23.278;2022-08-01T13:01:27;94731.63;;;27.23;40.60
6132;BME280;3097;42.692;23.278;2022-08-01T13:04:00;94735.25;;;27.30;40.80
6132;BME280;3097;42.692;23.278;2022-08-01T13:06:29;94737.25;;;27.33;41.19
6132;BME280;3097;42.692;23.278;2022-08-01T13:08:54;94726.66;;;27.33;40.29
6132;BME280;3097;42.692;23.278;2022-08-01T13:11:20;94736.50;;;27.33;41.55
6132;BME280;3097;42.692;23.278;2022-08-01T13:13:47;94728.00;;;27.40;40.47
6132;BME280;3097;42.692;23.278;2022-08-01T13:16:14;94727.75;;;27.45;40.22
6132;BME280;3097;42.692;23.278;2022-08-01T13:18:48;94731.63;;;27.47;40.46
6132;BME280;3097;42.692;23.278;2022-08-01T13:26:44;94724.69;;;27.43;40.98
6132;BME280;3097;42.692;23.278;2022-08-01T13:29:15;94721.59;;;27.41;40.93
6132;BME280;3097;42.692;23.278;2022-08-01T13:31:41;94720.19;;;27.43;40.16
6132;BME280;3097;42.692;23.278;2022-08-01T13:34:07;94722.25;;;27.38;41.40
6132;BME280;3097;42.692;23.278;2022-08-01T13:36:34;94722.25;;;27.38;40.68
6132;BME280;3097;42.692;23.278;2022-08-01T13:39:00;94708.38;;;27.41;41.19
6132;BME280;3097;42.692;23.278;2022-08-01T13:41:45;94715.44;;;27.49;40.98
6132;BME280;3097;42.692;23.278;2022-08-01T13:44:11;94704.63;;;27.54;40.85
6132;BME280;3097;42.692;23.278;2022-08-01T13:46:38;94703.66;;;27.58;40.34
6132;BME280;3097;42.692;23.278;2022-08-01T13:49:05;94700.22;;;27.58;41.48
6132;BME280;3097;42.692;23.278;2022-08-01T13:51:31;94705.75;;;27.65;41.13